sensor_id;sensor_type;location;lat;lon;timestamp;temperature;humidity
10431;DHT22;5262;59.958;17.726;2023-04-08T00:00:14;-2.80;99.90
10431;DHT22;5262;59.958;17.726;2023-04-08T00:02:40;-2.80;99.90
10431;DHT22;5262;59.958;17.726;2023-04-08T00:05:06;-2.80;99.90
10431;DHT22;5262;59.958;17.726;2023-04-08T00:07:32;-2.80;99.90
10431;DHT22;5262;59.958;17.726;2023-04-08T00:09:58;-2.90;99.90
10431;DHT22;5262;59.958;17.726;2023-04-08T00:12:24;-2.90;99.90
10431;DHT22;5262;59.958;17.726;2023-04-08T00:14:49;-2.90;99.90
10431;DHT22;5262;59.958;17.726;2023-04-08T00:17:15;-2.90;99.90
10431;DHT22;5262;59.958;17.726;2023-04-08T00:19:41;-2.90;99.90
10431;DHT22;5262;59.958;17.726;2023-04-08T00:22:06;-3.00;99.90
10431;DHT22;5262;59.958;17.726;2023-04-08T00:24:32;-3.00;99.90
10431;DHT22;5262;59.958;17.726;2023-04-08T00:26:58;-3.00;99.90
10431;DHT22;5262;59.958;17.726;2023-04-08T00:29:24;-3.10;99.90
10431;DHT22;5262;59.958;17.726;2023-04-08T00:31:49;-3.10;99.90
10431;DHT22;5262;59.958;17.726;2023-04-08T00:34:15;-3.10;99.90
10431;DHT22;5262;59.958;17.726;2023-04-08T00:36:41;-3.10;99.90
10431;DHT22;5262;59.958;17.726;2023-04-08T00:39:07;-3.10;99.90
10431;DHT22;5262;59.958;17.726;2023-04-08T00:41:33;-3.20;99.90
10431;DHT22;5262;59.958;17.726;2023-04-08T00:44:00;-3.20;99.90
10431;DHT22;5262;59.958;17.726;2023-04-08T00:46:26;-3.20;99.90
10431;DHT22;5262;59.958;17.726;2023-04-08T00:48:53;-3.20;99.90
10431;DHT22;5262;59.958;17.726;2023-04-08T00:51:19;-3.30;99.90
10431;DHT22;5262;59.958;17.726;2023-04-08T00:53:45;-3.30;99.90
10431;DHT22;5262;59.958;17.726;2023-04-08T00:56:11;-3.30;99.90
10431;DHT22;5262;59.958;17.726;2023-04-08T00:58:37;-3.40;99.90
10431;DHT22;5262;59.958;17.726;2023-04-08T01:01:07;-3.40;99.90
10431;DHT22;5262;59.958;17.726;2023-04-08T01:04:01;-3.40;99.90
10431;DHT22;5262;59.958;17.726;2023-04-08T01:06:45;-3.40;99.90
10431;DHT22;5262;59.958;17.726;2023-04-08T01:09:12;-3.50;99.90
10431;DHT22;5262;59.958;17.726;2023-04-08T01:11:43;-3.50;99.90
10431;DHT22;5262;59.958;17.726;2023-04-08T01:14:11;-3.50;99.90
10431;DHT22;5262;59.958;17.726;2023-04-08T01:16:41;-3.60;99.90
10431;DHT22;5262;59.958;17.726;2023-04-08T01:19:09;-3.60;99.90
10431;DHT22;5262;59.958;17.726;2023-04-08T01:21:39;-3.60;99.90
10431;DHT22;5262;59.958;17.726;2023-04-08T01:24:20;-3.60;99.90
10431;DHT22;5262;59.958;17.726;2023-04-08T01:26:48;-3.60;99.90
10431;DHT22;5262;59.958;17.726;2023-04-08T01:29:15;-3.60;99.90
10431;DHT22;5262;59.958;17.726;2023-04-08T01:31:41;-3.60;99.90
10431;DHT22;5262;59.958;17.726;2023-04-08T01:34:09;-3.60;99.90
10431;DHT22;5262;59.958;17.726;2023-04-08T01:36:37;-3.70;99.90
10431;DHT22;5262;59.958;17.726;2023-04-08T01:39:04;-3.70;99.90
10431;DHT22;5262;59.958;17.726;2023-04-08T01:41:35;-3.70;99.90
10431;DHT22;5262;59.958;17.726;2023-04-08T01:44:02;-3.70;99.90
10431;DHT22;5262;59.958;17.726;2023-04-08T01:46:29;-3.70;99.90
10431;DHT22;5262;59.958;17.726;2023-04-08T01:48:56;-3.70;99.90
10431;DHT22;5262;59.958;17.726;2023-04-08T01:51:23;-3.70;99.90
10431;DHT22;5262;59.958;17.726;2023-04-08T01:53:49;-3.80;99.90
10431;DHT22;5262;59.958;17.726;2023-04-08T01:56:15;-3.80;99.90
10431;DHT22;5262;59.958;17.726;2023-04-08T01:58:50;-3.80;99.90
10431;DHT22;5262;59.958;17.726;2023-04-08T02:01:19;-3.80;99.90
10431;DHT22;5262;59.958;17.726;2023-04-08T02:03:46;-3.90;99.90
10431;DHT22;5262;59.958;17.726;2023-04-08T02:06:12;-3.90;99.90
10431;DHT22;5262;59.958;17.726;2023-04-08T02:08:38;-3.90;99.90
10431;DHT22;5262;59.958;17.726;2023-04-08T02:11:04;-3.90;99.90
10431;DHT22;5262;59.958;17.726;2023-04-08T02:13:31;-3.90;99.90
10431;DHT22;5262;59.958;17.726;2023-04-08T02:16:11;-3.80;99.90
10431;DHT22;5262;59.958;17.726;2023-04-08T02:18:45;-3.90;99.90
10431;DHT22;5262;59.958;17.726;2023-04-08T02:21:16;-3.80;99.90
10431;DHT22;5262;59.958;17.726;2023-04-08T02:23:47;-3.90;99.90
10431;DHT22;5262;59.958;17.726;2023-04-08T02:26:15;-3.80;99.90
10431;DHT22;5262;59.958;17.726;2023-04-08T02:28:41;-3.80;99.90
10431;DHT22;5262;59.958;17.726;2023-04-08T02:31:11;-3.90;99.90
10431;DHT22;5262;59.958;17.726;2023-04-08T02:33:39;-3.90;99.90
10431;DHT22;5262;59.958;17.726;2023-04-08T02:36:05;-3.90;99.90
10431;DHT22;5262;59.958;17.726;2023-04-08T02:38:31;-3.90;99.90
10431;DHT22;5262;59.958;17.726;2023-04-08T02:40:57;-4.00;99.90
10431;DHT22;5262;59.958;17.726;2023-04-08T02:43:23;-4.00;99.90
10431;DHT22;5262;59.958;17.726;2023-04-08T02:46:00;-4.00;99.90
10431;DHT22;5262;59.958;17.726;2023-04-08T02:48:28;-4.00;99.90
10431;DHT22;5262;59.958;17.726;2023-04-08T02:50:54;-4.10;99.90
10431;DHT22;5262;59.958;17.726;2023-04-08T02:53:21;-4.10;99.90
10431;DHT22;5262;59.958;17.726;2023-04-08T02:55:46;-4.10;99.90
10431;DHT22;5262;59.958;17.726;2023-04-08T02:58:12;-4.10;99.90
10431;DHT22;5262;59.958;17.726;2023-04-08T03:00:37;-4.20;99.90
10431;DHT22;5262;59.958;17.726;2023-04-08T03:03:04;-4.20;99.90
10431;DHT22;5262;59.958;17.726;2023-04-08T03:05:31;-4.20;99.90
10431;DHT22;5262;59.958;17.726;2023-04-08T03:07:58;-4.20;99.90
10431;DHT22;5262;59.958;17.726;2023-04-08T03:10:24;-4.30;99.90
10431;DHT22;5262;59.958;17.726;2023-04-08T03:12:49;-4.30;99.90
10431;DHT22;5262;59.958;17.726;2023-04-08T03:15:15;-4.30;99.90
10431;DHT22;5262;59.958;17.726;2023-04-08T03:17:41;-4.40;99.90
10431;DHT22;5262;59.958;17.726;2023-04-08T03:20:07;-4.40;99.90
10431;DHT22;5262;59.958;17.726;2023-04-08T03:22:33;-4.40;99.90
10431;DHT22;5262;59.958;17.726;2023-04-08T03:24:59;-4.40;99.90
10431;DHT22;5262;59.958;17.726;2023-04-08T03:27:25;-4.50;99.90
10431;DHT22;5262;59.958;17.726;2023-04-08T03:29:50;-4.50;99.90
10431;DHT22;5262;59.958;17.726;2023-04-08T03:32:17;-4.50;99.90
10431;DHT22;5262;59.958;17.726;2023-04-08T03:34:43;-4.50;99.90
10431;DHT22;5262;59.958;17.726;2023-04-08T03:37:09;-4.50;99.90
10431;DHT22;5262;59.958;17.726;2023-04-08T03:39:34;-4.50;99.90
10431;DHT22;5262;59.958;17.726;2023-04-08T03:42:00;-4.60;99.90
10431;DHT22;5262;59.958;17.726;2023-04-08T03:44:27;-4.60;99.90
10431;DHT22;5262;59.958;17.726;2023-04-08T03:46:53;-4.60;99.90
10431;DHT22;5262;59.958;17.726;2023-04-08T03:49:19;-4.60;99.90
10431;DHT22;5262;59.958;17.726;2023-04-08T03:51:44;-4.60;99.90
10431;DHT22;5262;59.958;17.726;2023-04-08T03:54:10;-4.60;99.90
10431;DHT22;5262;59.958;17.726;2023-04-08T03:56:35;-4.60;99.90
10431;DHT22;5262;59.958;17.726;2023-04-08T03:59:01;-4.70;99.90
10431;DHT22;5262;59.958;17.726;2023-04-08T04:01:27;-4.60;99.90
10431;DHT22;5262;59.958;17.726;2023-04-08T04:03:54;-4.70;99.90
10431;DHT22;5262;59.958;17.726;2023-04-08T04:06:19;-4.70;99.90
10431;DHT22;5262;59.958;17.726;2023-04-08T04:08:45;-4.70;99.90
10431;DHT22;5262;59.958;17.726;2023-04-08T04:11:11;-4.70;99.90
10431;DHT22;5262;59.958;17.726;2023-04-08T04:13:36;-4.60;99.90
10431;DHT22;5262;59.958;17.726;2023-04-08T04:16:02;-4.60;99.90
10431;DHT22;5262;59.958;17.726;2023-04-08T04:18:28;-4.60;99.90
10431;DHT22;5262;59.958;17.726;2023-04-08T04:20:54;-4.60;99.90
10431;DHT22;5262;59.958;17.726;2023-04-08T04:23:19;-4.60;99.90
10431;DHT22;5262;59.958;17.726;2023-04-08T04:25:45;-4.50;99.90
10431;DHT22;5262;59.958;17.726;2023-04-08T04:28:11;-4.50;99.90
10431;DHT22;5262;59.958;17.726;2023-04-08T04:30:37;-4.50;99.90
10431;DHT22;5262;59.958;17.726;2023-04-08T04:33:04;-4.50;99.90
10431;DHT22;5262;59.958;17.726;2023-04-08T04:35:29;-4.40;99.90
10431;DHT22;5262;59.958;17.726;2023-04-08T04:37:55;-4.40;99.90
10431;DHT22;5262;59.958;17.726;2023-04-08T04:40:21;-4.40;99.90
10431;DHT22;5262;59.958;17.726;2023-04-08T04:42:46;-4.30;99.90
10431;DHT22;5262;59.958;17.726;2023-04-08T04:45:12;-4.30;99.90
10431;DHT22;5262;59.958;17.726;2023-04-08T04:47:38;-4.20;99.90
10431;DHT22;5262;59.958;17.726;2023-04-08T04:50:04;-4.20;99.90
10431;DHT22;5262;59.958;17.726;2023-04-08T04:52:30;-4.10;99.90
10431;DHT22;5262;59.958;17.726;2023-04-08T04:54:56;-4.00;99.90
10431;DHT22;5262;59.958;17.726;2023-04-08T04:57:22;-4.00;99.90
10431;DHT22;5262;59.958;17.726;2023-04-08T04:59:48;-4.00;99.90
10431;DHT22;5262;59.958;17.726;2023-04-08T05:02:13;-3.90;99.90
10431;DHT22;5262;59.958;17.726;2023-04-08T05:04:39;-3.90;99.90
10431;DHT22;5262;59.958;17.726;2023-04-08T05:07:05;-3.90;99.90
10431;DHT22;5262;59.958;17.726;2023-04-08T05:09:31;-3.90;99.90
10431;DHT22;5262;59.958;17.726;2023-04-08T05:11:56;-3.80;99.90
10431;DHT22;5262;59.958;17.726;2023-04-08T05:14:22;-3.80;99.90
10431;DHT22;5262;59.958;17.726;2023-04-08T05:16:48;-3.70;99.90
10431;DHT22;5262;59.958;17.726;2023-04-08T05:19:13;-3.70;99.90
10431;DHT22;5262;59.958;17.726;2023-04-08T05:21:39;-3.70;99.90
10431;DHT22;5262;59.958;17.726;2023-04-08T05:24:04;-3.50;99.90
10431;DHT22;5262;59.958;17.726;2023-04-08T05:26:30;-3.40;99.90
10431;DHT22;5262;59.958;17.726;2023-04-08T05:28:56;-3.40;99.90
10431;DHT22;5262;59.958;17.726;2023-04-08T05:31:21;-3.30;99.90
10431;DHT22;5262;59.958;17.726;2023-04-08T05:33:49;-3.30;99.90
10431;DHT22;5262;59.958;17.726;2023-04-08T05:36:15;-3.20;99.90
10431;DHT22;5262;59.958;17.726;2023-04-08T05:38:41;-3.20;99.90
10431;DHT22;5262;59.958;17.726;2023-04-08T05:41:10;-3.10;99.90
10431;DHT22;5262;59.958;17.726;2023-04-08T05:43:36;-3.00;99.90
10431;DHT22;5262;59.958;17.726;2023-04-08T05:46:08;-2.80;99.90
10431;DHT22;5262;59.958;17.726;2023-04-08T05:48:35;-2.70;99.90
10431;DHT22;5262;59.958;17.726;2023-04-08T05:51:01;-2.60;99.90
10431;DHT22;5262;59.958;17.726;2023-04-08T05:53:27;-2.50;99.90
10431;DHT22;5262;59.958;17.726;2023-04-08T05:55:52;-2.40;99.90
10431;DHT22;5262;59.958;17.726;2023-04-08T05:58:18;-2.30;99.90
10431;DHT22;5262;59.958;17.726;2023-04-08T06:00:43;-2.20;99.90
10431;DHT22;5262;59.958;17.726;2023-04-08T06:03:09;-2.00;99.90
10431;DHT22;5262;59.958;17.726;2023-04-08T06:05:35;-1.90;99.90
10431;DHT22;5262;59.958;17.726;2023-04-08T06:08:00;-1.60;99.90
10431;DHT22;5262;59.958;17.726;2023-04-08T06:10:26;-1.40;99.90
10431;DHT22;5262;59.958;17.726;2023-04-08T06:12:51;-1.20;99.90
10431;DHT22;5262;59.958;17.726;2023-04-08T06:15:17;-0.90;99.90
10431;DHT22;5262;59.958;17.726;2023-04-08T06:17:43;-0.50;99.90
10431;DHT22;5262;59.958;17.726;2023-04-08T06:20:08;-0.10;99.90
10431;DHT22;5262;59.958;17.726;2023-04-08T06:22:35;0.20;99.90
10431;DHT22;5262;59.958;17.726;2023-04-08T06:25:01;0.50;99.90
10431;DHT22;5262;59.958;17.726;2023-04-08T06:27:27;0.90;99.90
10431;DHT22;5262;59.958;17.726;2023-04-08T06:29:52;1.20;99.90
10431;DHT22;5262;59.958;17.726;2023-04-08T06:32:20;1.60;99.90
10431;DHT22;5262;59.958;17.726;2023-04-08T06:34:46;2.00;99.90
10431;DHT22;5262;59.958;17.726;2023-04-08T06:37:12;2.30;99.90
10431;DHT22;5262;59.958;17.726;2023-04-08T06:39:38;2.80;99.90
10431;DHT22;5262;59.958;17.726;2023-04-08T06:42:03;3.10;99.90
10431;DHT22;5262;59.958;17.726;2023-04-08T06:44:29;3.50;99.90
10431;DHT22;5262;59.958;17.726;2023-04-08T06:46:55;3.80;99.90
10431;DHT22;5262;59.958;17.726;2023-04-08T06:49:20;4.50;99.90
10431;DHT22;5262;59.958;17.726;2023-04-08T06:51:46;4.70;99.90
10431;DHT22;5262;59.958;17.726;2023-04-08T06:54:12;5.00;99.90
10431;DHT22;5262;59.958;17.726;2023-04-08T06:56:37;5.40;99.90
10431;DHT22;5262;59.958;17.726;2023-04-08T06:59:03;6.10;99.90
10431;DHT22;5262;59.958;17.726;2023-04-08T07:01:29;7.10;99.90
10431;DHT22;5262;59.958;17.726;2023-04-08T07:03:56;7.60;99.90
10431;DHT22;5262;59.958;17.726;2023-04-08T07:06:22;8.30;98.20
10431;DHT22;5262;59.958;17.726;2023-04-08T07:08:48;9.50;96.90
10431;DHT22;5262;59.958;17.726;2023-04-08T07:11:14;9.60;95.00
10431;DHT22;5262;59.958;17.726;2023-04-08T07:13:40;9.60;94.40
10431;DHT22;5262;59.958;17.726;2023-04-08T07:16:05;10.30;93.00
10431;DHT22;5262;59.958;17.726;2023-04-08T07:18:31;10.40;90.60
10431;DHT22;5262;59.958;17.726;2023-04-08T07:20:57;11.00;89.40
10431;DHT22;5262;59.958;17.726;2023-04-08T07:23:25;11.60;87.90
10431;DHT22;5262;59.958;17.726;2023-04-08T07:25:51;11.80;82.30
10431;DHT22;5262;59.958;17.726;2023-04-08T07:28:18;13.00;79.90
10431;DHT22;5262;59.958;17.726;2023-04-08T07:30:44;12.60;77.50
10431;DHT22;5262;59.958;17.726;2023-04-08T07:33:10;12.30;77.90
10431;DHT22;5262;59.958;17.726;2023-04-08T07:35:35;12.40;74.00
10431;DHT22;5262;59.958;17.726;2023-04-08T07:38:01;12.80;73.20
10431;DHT22;5262;59.958;17.726;2023-04-08T07:40:27;13.50;71.50
10431;DHT22;5262;59.958;17.726;2023-04-08T07:42:52;13.30;69.60
10431;DHT22;5262;59.958;17.726;2023-04-08T07:45:19;13.20;69.60
10431;DHT22;5262;59.958;17.726;2023-04-08T07:47:45;12.60;68.80
10431;DHT22;5262;59.958;17.726;2023-04-08T07:50:11;13.80;69.10
10431;DHT22;5262;59.958;17.726;2023-04-08T07:52:37;14.30;64.40
10431;DHT22;5262;59.958;17.726;2023-04-08T07:55:02;13.90;61.40
10431;DHT22;5262;59.958;17.726;2023-04-08T07:57:30;15.20;63.80
10431;DHT22;5262;59.958;17.726;2023-04-08T07:59:56;15.40;62.50
10431;DHT22;5262;59.958;17.726;2023-04-08T08:02:22;15.10;60.10
10431;DHT22;5262;59.958;17.726;2023-04-08T08:04:47;15.10;59.30
10431;DHT22;5262;59.958;17.726;2023-04-08T08:07:13;15.70;59.50
10431;DHT22;5262;59.958;17.726;2023-04-08T08:09:39;15.60;58.60
10431;DHT22;5262;59.958;17.726;2023-04-08T08:12:04;16.20;58.80
10431;DHT22;5262;59.958;17.726;2023-04-08T08:14:30;14.80;55.60
10431;DHT22;5262;59.958;17.726;2023-04-08T08:16:56;15.70;56.50
10431;DHT22;5262;59.958;17.726;2023-04-08T08:19:22;16.10;55.00
10431;DHT22;5262;59.958;17.726;2023-04-08T08:21:48;16.70;56.40
10431;DHT22;5262;59.958;17.726;2023-04-08T08:24:13;17.20;53.70
10431;DHT22;5262;59.958;17.726;2023-04-08T08:26:39;17.00;52.20
10431;DHT22;5262;59.958;17.726;2023-04-08T08:29:06;16.90;52.90
10431;DHT22;5262;59.958;17.726;2023-04-08T08:31:33;16.30;50.90
10431;DHT22;5262;59.958;17.726;2023-04-08T08:33:59;16.50;53.50
10431;DHT22;5262;59.958;17.726;2023-04-08T08:36:24;16.80;50.00
10431;DHT22;5262;59.958;17.726;2023-04-08T08:38:51;16.20;50.00
10431;DHT22;5262;59.958;17.726;2023-04-08T08:41:21;16.90;50.40
10431;DHT22;5262;59.958;17.726;2023-04-08T08:43:47;17.30;50.30
10431;DHT22;5262;59.958;17.726;2023-04-08T08:46:16;17.90;49.40
10431;DHT22;5262;59.958;17.726;2023-04-08T08:48:42;18.00;49.30
10431;DHT22;5262;59.958;17.726;2023-04-08T08:51:09;17.60;48.60
10431;DHT22;5262;59.958;17.726;2023-04-08T08:53:35;17.90;47.90
10431;DHT22;5262;59.958;17.726;2023-04-08T08:56:01;17.90;48.10
10431;DHT22;5262;59.958;17.726;2023-04-08T08:58:27;17.80;46.00
10431;DHT22;5262;59.958;17.726;2023-04-08T09:00:53;17.20;46.20
10431;DHT22;5262;59.958;17.726;2023-04-08T09:03:21;17.40;48.60
10431;DHT22;5262;59.958;17.726;2023-04-08T09:08:35;17.10;43.40
10431;DHT22;5262;59.958;17.726;2023-04-08T09:11:15;16.20;43.00
10431;DHT22;5262;59.958;17.726;2023-04-08T09:13:42;17.10;44.40
10431;DHT22;5262;59.958;17.726;2023-04-08T09:16:13;17.70;44.40
10431;DHT22;5262;59.958;17.726;2023-04-08T09:18:41;18.40;44.40
10431;DHT22;5262;59.958;17.726;2023-04-08T09:21:09;18.00;42.10
10431;DHT22;5262;59.958;17.726;2023-04-08T09:23:46;18.70;43.10
10431;DHT22;5262;59.958;17.726;2023-04-08T09:26:13;18.10;43.10
10431;DHT22;5262;59.958;17.726;2023-04-08T09:28:41;18.20;42.30
10431;DHT22;5262;59.958;17.726;2023-04-08T09:31:24;18.20;44.70
10431;DHT22;5262;59.958;17.726;2023-04-08T09:33:53;18.90;42.70
10431;DHT22;5262;59.958;17.726;2023-04-08T09:36:19;18.60;43.40
10431;DHT22;5262;59.958;17.726;2023-04-08T09:38:45;18.40;41.20
10431;DHT22;5262;59.958;17.726;2023-04-08T09:41:17;18.00;40.30
10431;DHT22;5262;59.958;17.726;2023-04-08T09:43:53;18.50;40.70
10431;DHT22;5262;59.958;17.726;2023-04-08T09:49:28;18.20;39.70
10431;DHT22;5262;59.958;17.726;2023-04-08T09:52:20;18.90;40.60
10431;DHT22;5262;59.958;17.726;2023-04-08T09:55:03;18.80;38.50
10431;DHT22;5262;59.958;17.726;2023-04-08T10:00:15;17.30;37.30
10431;DHT22;5262;59.958;17.726;2023-04-08T10:03:17;16.80;38.30
10431;DHT22;5262;59.958;17.726;2023-04-08T10:05:47;17.50;39.30
10431;DHT22;5262;59.958;17.726;2023-04-08T10:08:15;18.00;39.10
10431;DHT22;5262;59.958;17.726;2023-04-08T10:10:41;17.40;37.20
10431;DHT22;5262;59.958;17.726;2023-04-08T10:13:08;16.20;37.40
10431;DHT22;5262;59.958;17.726;2023-04-08T10:15:34;16.80;39.50
10431;DHT22;5262;59.958;17.726;2023-04-08T10:23:06;18.80;37.40
10431;DHT22;5262;59.958;17.726;2023-04-08T10:25:32;18.50;36.20
10431;DHT22;5262;59.958;17.726;2023-04-08T10:30:55;17.60;35.60
10431;DHT22;5262;59.958;17.726;2023-04-08T10:35:58;18.30;35.70
10431;DHT22;5262;59.958;17.726;2023-04-08T10:38:24;18.70;35.00
10431;DHT22;5262;59.958;17.726;2023-04-08T10:40:50;19.10;35.80
10431;DHT22;5262;59.958;17.726;2023-04-08T10:43:16;19.00;36.20
10431;DHT22;5262;59.958;17.726;2023-04-08T10:45:42;18.80;35.20
10431;DHT22;5262;59.958;17.726;2023-04-08T10:48:20;18.40;34.40
10431;DHT22;5262;59.958;17.726;2023-04-08T10:50:57;18.70;35.00
10431;DHT22;5262;59.958;17.726;2023-04-08T10:53:33;19.30;33.20
10431;DHT22;5262;59.958;17.726;2023-04-08T10:56:10;19.70;34.10
10431;DHT22;5262;59.958;17.726;2023-04-08T10:58:52;18.50;34.10
10431;DHT22;5262;59.958;17.726;2023-04-08T11:01:18;19.50;34.80
10431;DHT22;5262;59.958;17.726;2023-04-08T11:03:44;19.40;33.80
10431;DHT22;5262;59.958;17.726;2023-04-08T11:06:10;19.70;33.10
10431;DHT22;5262;59.958;17.726;2023-04-08T11:08:36;19.40;34.10
10431;DHT22;5262;59.958;17.726;2023-04-08T11:11:04;19.90;34.10
10431;DHT22;5262;59.958;17.726;2023-04-08T11:13:34;19.30;32.90
10431;DHT22;5262;59.958;17.726;2023-04-08T11:16:00;20.00;34.90
10431;DHT22;5262;59.958;17.726;2023-04-08T11:18:27;20.40;32.80
10431;DHT22;5262;59.958;17.726;2023-04-08T11:20:53;19.40;30.40
10431;DHT22;5262;59.958;17.726;2023-04-08T11:23:19;19.70;33.10
10431;DHT22;5262;59.958;17.726;2023-04-08T11:25:45;19.10;33.40
10431;DHT22;5262;59.958;17.726;2023-04-08T11:28:13;19.00;33.20
10431;DHT22;5262;59.958;17.726;2023-04-08T11:30:39;19.80;32.90
10431;DHT22;5262;59.958;17.726;2023-04-08T11:33:09;20.10;33.70
10431;DHT22;5262;59.958;17.726;2023-04-08T11:35:39;19.30;32.30
10431;DHT22;5262;59.958;17.726;2023-04-08T11:38:07;19.50;32.60
10431;DHT22;5262;59.958;17.726;2023-04-08T11:40:32;20.40;31.70
10431;DHT22;5262;59.958;17.726;2023-04-08T11:42:58;19.50;31.20
10431;DHT22;5262;59.958;17.726;2023-04-08T11:45:24;19.80;31.10
10431;DHT22;5262;59.958;17.726;2023-04-08T11:47:49;19.70;32.40
10431;DHT22;5262;59.958;17.726;2023-04-08T11:50:22;20.10;31.80
10431;DHT22;5262;59.958;17.726;2023-04-08T11:52:50;19.40;32.40
10431;DHT22;5262;59.958;17.726;2023-04-08T11:55:30;18.60;32.70
10431;DHT22;5262;59.958;17.726;2023-04-08T11:58:01;18.20;30.20
10431;DHT22;5262;59.958;17.726;2023-04-08T12:00:27;18.80;31.80
10431;DHT22;5262;59.958;17.726;2023-04-08T12:02:53;17.70;30.60
10431;DHT22;5262;59.958;17.726;2023-04-08T12:05:19;17.80;31.30
10431;DHT22;5262;59.958;17.726;2023-04-08T12:07:46;18.00;32.30
10431;DHT22;5262;59.958;17.726;2023-04-08T12:10:12;17.90;30.40
10431;DHT22;5262;59.958;17.726;2023-04-08T12:12:38;17.50;30.00
10431;DHT22;5262;59.958;17.726;2023-04-08T12:15:05;17.10;31.90
10431;DHT22;5262;59.958;17.726;2023-04-08T12:17:31;16.50;32.80
10431;DHT22;5262;59.958;17.726;2023-04-08T12:19:57;15.80;31.80
10431;DHT22;5262;59.958;17.726;2023-04-08T12:22:23;16.50;33.40
10431;DHT22;5262;59.958;17.726;2023-04-08T12:24:48;16.30;33.10
10431;DHT22;5262;59.958;17.726;2023-04-08T12:27:14;16.30;33.10
10431;DHT22;5262;59.958;17.726;2023-04-08T12:29:40;15.70;32.10
10431;DHT22;5262;59.958;17.726;2023-04-08T12:32:06;15.20;33.00
10431;DHT22;5262;59.958;17.726;2023-04-08T12:34:31;15.50;33.90
10431;DHT22;5262;59.958;17.726;2023-04-08T12:36:58;15.60;32.70
10431;DHT22;5262;59.958;17.726;2023-04-08T12:39:23;15.60;32.20
10431;DHT22;5262;59.958;17.726;2023-04-08T12:41:49;15.60;33.50
10431;DHT22;5262;59.958;17.726;2023-04-08T12:44:15;15.10;32.80
10431;DHT22;5262;59.958;17.726;2023-04-08T12:46:41;15.00;34.90
10431;DHT22;5262;59.958;17.726;2023-04-08T12:49:06;14.70;34.30
10431;DHT22;5262;59.958;17.726;2023-04-08T12:51:33;15.00;33.10
10431;DHT22;5262;59.958;17.726;2023-04-08T12:53:59;14.40;33.40
10431;DHT22;5262;59.958;17.726;2023-04-08T12:56:25;14.80;33.70
10431;DHT22;5262;59.958;17.726;2023-04-08T12:58:51;14.70;33.70
10431;DHT22;5262;59.958;17.726;2023-04-08T13:01:17;14.40;34.00
10431;DHT22;5262;59.958;17.726;2023-04-08T13:03:42;13.90;33.40
10431;DHT22;5262;59.958;17.726;2023-04-08T13:06:08;13.40;31.90
10431;DHT22;5262;59.958;17.726;2023-04-08T13:08:34;13.30;33.50
10431;DHT22;5262;59.958;17.726;2023-04-08T13:11:00;13.80;34.50
10431;DHT22;5262;59.958;17.726;2023-04-08T13:13:26;14.00;33.60
10431;DHT22;5262;59.958;17.726;2023-04-08T13:15:51;14.10;35.00
10431;DHT22;5262;59.958;17.726;2023-04-08T13:18:17;13.60;33.30
10431;DHT22;5262;59.958;17.726;2023-04-08T13:20:43;13.40;33.10
10431;DHT22;5262;59.958;17.726;2023-04-08T13:23:08;13.60;34.40
10431;DHT22;5262;59.958;17.726;2023-04-08T13:25:34;14.20;35.10
10431;DHT22;5262;59.958;17.726;2023-04-08T13:27:59;14.00;34.40
10431;DHT22;5262;59.958;17.726;2023-04-08T13:30:28;13.80;34.60
10431;DHT22;5262;59.958;17.726;2023-04-08T13:32:53;13.80;32.90
10431;DHT22;5262;59.958;17.726;2023-04-08T13:35:19;13.70;33.00
10431;DHT22;5262;59.958;17.726;2023-04-08T13:37:45;13.80;32.90
10431;DHT22;5262;59.958;17.726;2023-04-08T13:40:11;13.90;34.00
10431;DHT22;5262;59.958;17.726;2023-04-08T13:42:37;13.80;34.20
10431;DHT22;5262;59.958;17.726;2023-04-08T13:45:04;13.70;34.20
10431;DHT22;5262;59.958;17.726;2023-04-08T13:47:29;13.80;35.10
10431;DHT22;5262;59.958;17.726;2023-04-08T13:49:55;13.80;34.10
10431;DHT22;5262;59.958;17.726;2023-04-08T13:52:21;13.90;34.60
10431;DHT22;5262;59.958;17.726;2023-04-08T13:54:47;13.60;33.20
10431;DHT22;5262;59.958;17.726;2023-04-08T13:57:12;13.60;33.50
10431;DHT22;5262;59.958;17.726;2023-04-08T13:59:38;13.20;33.00
10431;DHT22;5262;59.958;17.726;2023-04-08T14:02:03;12.90;33.90
10431;DHT22;5262;59.958;17.726;2023-04-08T14:04:29;13.30;34.90
10431;DHT22;5262;59.958;17.726;2023-04-08T14:06:55;13.40;35.00
10431;DHT22;5262;59.958;17.726;2023-04-08T14:09:22;13.60;35.30
10431;DHT22;5262;59.958;17.726;2023-04-08T14:11:48;13.40;33.60
10431;DHT22;5262;59.958;17.726;2023-04-08T14:14:14;13.00;32.70
10431;DHT22;5262;59.958;17.726;2023-04-08T14:16:40;13.00;31.90
10431;DHT22;5262;59.958;17.726;2023-04-08T14:19:06;13.00;34.10
10431;DHT22;5262;59.958;17.726;2023-04-08T14:21:32;12.80;33.90
10431;DHT22;5262;59.958;17.726;2023-04-08T14:23:58;12.80;33.80
10431;DHT22;5262;59.958;17.726;2023-04-08T14:26:24;13.00;34.10
10431;DHT22;5262;59.958;17.726;2023-04-08T14:28:49;12.60;34.40
10431;DHT22;5262;59.958;17.726;2023-04-08T14:31:15;12.80;34.10
10431;DHT22;5262;59.958;17.726;2023-04-08T14:33:41;12.60;34.40
10431;DHT22;5262;59.958;17.726;2023-04-08T14:36:11;12.60;33.90
10431;DHT22;5262;59.958;17.726;2023-04-08T14:38:38;12.70;35.80
10431;DHT22;5262;59.958;17.726;2023-04-08T14:41:03;12.60;36.30
10431;DHT22;5262;59.958;17.726;2023-04-08T14:43:29;12.40;34.40
10431;DHT22;5262;59.958;17.726;2023-04-08T14:45:55;12.20;36.10
10431;DHT22;5262;59.958;17.726;2023-04-08T14:48:21;12.10;35.10
10431;DHT22;5262;59.958;17.726;2023-04-08T14:50:46;12.10;38.00
10431;DHT22;5262;59.958;17.726;2023-04-08T14:53:12;12.20;37.70
10431;DHT22;5262;59.958;17.726;2023-04-08T14:55:37;11.90;35.80
10431;DHT22;5262;59.958;17.726;2023-04-08T14:58:03;11.80;37.10
10431;DHT22;5262;59.958;17.726;2023-04-08T15:00:30;11.80;36.80
10431;DHT22;5262;59.958;17.726;2023-04-08T15:02:55;12.00;37.80
10431;DHT22;5262;59.958;17.726;2023-04-08T15:05:21;12.10;37.80
10431;DHT22;5262;59.958;17.726;2023-04-08T15:07:47;12.10;37.50
10431;DHT22;5262;59.958;17.726;2023-04-08T15:10:13;12.20;37.90
10431;DHT22;5262;59.958;17.726;2023-04-08T15:12:39;12.00;36.50
10431;DHT22;5262;59.958;17.726;2023-04-08T15:15:05;11.90;38.90
10431;DHT22;5262;59.958;17.726;2023-04-08T15:17:31;11.90;38.00
10431;DHT22;5262;59.958;17.726;2023-04-08T15:19:58;11.60;37.20
10431;DHT22;5262;59.958;17.726;2023-04-08T15:22:23;11.70;38.50
10431;DHT22;5262;59.958;17.726;2023-04-08T15:24:49;11.60;40.50
10431;DHT22;5262;59.958;17.726;2023-04-08T15:27:15;11.60;43.10
10431;DHT22;5262;59.958;17.726;2023-04-08T15:29:40;11.60;40.00
10431;DHT22;5262;59.958;17.726;2023-04-08T15:32:06;11.50;42.10
10431;DHT22;5262;59.958;17.726;2023-04-08T15:34:32;11.60;41.90
10431;DHT22;5262;59.958;17.726;2023-04-08T15:36:58;11.50;38.90
10431;DHT22;5262;59.958;17.726;2023-04-08T15:39:23;11.50;38.80
10431;DHT22;5262;59.958;17.726;2023-04-08T15:41:49;11.40;40.00
10431;DHT22;5262;59.958;17.726;2023-04-08T15:44:15;11.30;42.80
10431;DHT22;5262;59.958;17.726;2023-04-08T15:46:41;11.10;39.90
10431;DHT22;5262;59.958;17.726;2023-04-08T15:49:07;11.10;41.90